1991 BELLA (1991013S04096)


On this page: IBTrACS data - Map and Plots - Positions - Intensities - Original source data

Summary

Start Jan 13
End Feb 4
Basin SI
LMI 130 kt
Sources jtwc_sh
reunion
neumann
In WMO? Yes
Previous storm 1991 ALISON (SI)
Previous in basin 1991 ALISON (SI)
Concurrent storms 1991 ALISON (SI)
1991 BELLA (SI)
1991 MISSING (NI)
Next in basin 1991 CHRIS (SI)
Next storm 1991 MISSING (NI)

top of page IBTrACS Data: File Access

top of page HURSAT Data: File Access

Image of storm

top of page Plots:

Map of storm track will not appear if FTP is down
Time series of cyclone Maximum Sustained Wind will not appear if FTP is down
Time series of cyclone Minimum Central Pressure will not appear if FTP is down

top of page Track Data:Position

jtwc_sh reunion neumann
Date Lat Lon Lat Lon Lat Lon
1991-01-13 00:00:00 -4.4 95.5 -4.4 95.5
1991-01-13 06:00:00 -4.6 95.5 -4.6 95.5
1991-01-13 12:00:00 -4.9 95.5 -4.9 95.5
1991-01-13 18:00:00 -5.2 95.5 -5.2 95.5
1991-01-14 00:00:00 -5.4 95.4 -5.4 95.4
1991-01-14 06:00:00 -5.6 95.2 -5.6 95.2
1991-01-14 12:00:00 -5.8 95.0 -5.8 95.0
1991-01-14 18:00:00 -6.0 94.7 -6.0 94.7
1991-01-15 00:00:00 -6.2 94.2 -6.2 94.2
1991-01-15 06:00:00 -6.3 93.7 -6.3 93.7
1991-01-15 12:00:00 -6.4 93.1 -6.4 93.1
1991-01-15 18:00:00 -6.5 92.4 -6.5 92.4
1991-01-16 00:00:00 -6.8 91.6 -6.8 91.6
1991-01-16 06:00:00 -7.1 91.0 -7.1 91.0
1991-01-16 12:00:00 -7.4 90.5 -7.4 90.5
1991-01-16 18:00:00 -7.6 90.0 -7.6 90.0
1991-01-17 00:00:00 -7.8 89.6 -7.8 89.6
1991-01-17 06:00:00 -8.1 89.2 -8.1 89.2
1991-01-17 12:00:00 -8.2 88.6 -8.2 88.6
1991-01-17 18:00:00 -8.4 87.9 -8.4 87.9
1991-01-18 00:00:00 -8.8 87.3 -8.8 87.3
1991-01-18 06:00:00 -9.1 86.5 -9.1 86.5
1991-01-18 12:00:00 -9.3 85.8 -9.2 87.5 -9.3 85.8
1991-01-18 18:00:00 -9.4 85.2 -9.9 86.1 -9.4 85.2
1991-01-19 00:00:00 -9.4 84.5 -10.2 84.9 -9.4 84.5
jtwc_sh reunion neumann
1991-01-19 06:00:00 -9.5 83.7 -10.2 83.9 -9.5 83.7
1991-01-19 12:00:00 -9.6 82.3 -10.1 83.1 -9.6 82.3
1991-01-19 18:00:00 -9.6 82.3 -10.1 82.5 -9.6 82.3
1991-01-20 00:00:00 -9.9 81.8 -10.2 82.1 -9.9 81.8
1991-01-20 06:00:00 -10.4 81.8 -10.5 82.1 -10.4 81.8
1991-01-20 12:00:00 -11.1 81.9 -11.2 82.6 -11.1 81.9
1991-01-20 18:00:00 -11.9 82.2 -12.0 82.7 -11.9 82.2
1991-01-21 00:00:00 -12.6 82.5 -12.8 82.6 -12.6 82.5
1991-01-21 06:00:00 -13.3 82.7 -13.7 82.5 -13.3 82.7
1991-01-21 12:00:00 -13.9 82.6 -14.4 82.3 -13.9 82.6
1991-01-21 18:00:00 -14.3 82.3 -14.9 82.2 -14.3 82.3
1991-01-22 00:00:00 -14.4 81.8 -14.7 82.4 -14.4 81.8
1991-01-22 06:00:00 -14.5 81.3 -14.2 82.2 -14.5 81.3
1991-01-22 12:00:00 -14.5 80.7 -13.7 81.7 -14.5 80.7
1991-01-22 18:00:00 -14.4 80.2 -13.5 81.0 -14.4 80.2
1991-01-23 00:00:00 -14.4 79.7 -13.7 80.1 -14.4 79.7
1991-01-23 06:00:00 -14.3 79.0 -14.1 79.2 -14.3 79.0
1991-01-23 12:00:00 -14.2 78.1 -14.3 78.3 -14.2 78.1
1991-01-23 18:00:00 -14.2 77.1 -14.5 77.5 -14.2 77.1
1991-01-24 00:00:00 -14.1 76.0 -14.6 76.4 -14.1 76.0
1991-01-24 06:00:00 -14.1 74.9 -15.0 75.1 -14.1 74.9
1991-01-24 12:00:00 -14.2 73.7 -15.5 73.9 -14.2 73.7
1991-01-24 18:00:00 -14.3 72.6 -15.4 72.3 -14.3 72.6
1991-01-25 00:00:00 -14.5 71.5 -15.1 70.6 -14.5 71.5
jtwc_sh reunion neumann
1991-01-25 06:00:00 -14.7 70.4 -15.0 69.3 -14.7 70.4
1991-01-25 12:00:00 -15.0 69.3 -14.9 68.3 -15.0 69.3
1991-01-25 18:00:00 -15.3 68.4 -14.9 67.3 -15.3 68.4
1991-01-26 00:00:00 -15.6 67.6 -15.2 66.5 -15.6 67.6
1991-01-26 06:00:00 -16.0 67.2 -15.8 66.2 -16.0 67.2
1991-01-26 12:00:00 -16.3 66.9 -16.4 66.1 -16.3 66.9
1991-01-26 18:00:00 -16.6 66.8 -16.7 66.1 -16.6 66.8
1991-01-27 00:00:00 -16.8 66.5 -16.9 66.0 -16.8 66.5
1991-01-27 06:00:00 -17.1 66.2 -17.2 66.0 -17.1 66.2
1991-01-27 12:00:00 -17.2 65.9 -17.2 65.6 -17.2 65.9
1991-01-27 18:00:00 -17.3 65.5 -17.1 65.4 -17.3 65.5
1991-01-28 00:00:00 -17.4 65.2 -17.0 65.2 -17.4 65.2
1991-01-28 06:00:00 -17.3 64.9 -17.1 64.8 -17.3 64.9
1991-01-28 12:00:00 -17.3 64.5 -17.2 64.1 -17.3 64.5
1991-01-28 18:00:00 -17.2 64.0 -17.4 63.5 -17.2 64.0
1991-01-29 00:00:00 -17.2 63.3 -17.5 63.1 -17.2 63.3
1991-01-29 06:00:00 -17.3 62.7 -17.6 62.9 -17.3 62.7
1991-01-29 12:00:00 -17.4 62.2 -17.6 62.5 -17.4 62.2
1991-01-29 18:00:00 -17.7 61.8 -17.8 61.9 -17.7 61.8
1991-01-30 00:00:00 -18.0 61.7 -18.0 61.5 -18.0 61.7
1991-01-30 06:00:00 -18.2 61.6 -18.3 61.7 -18.2 61.6
1991-01-30 12:00:00 -18.5 61.8 -18.6 62.1 -18.5 61.8
1991-01-30 18:00:00 -18.8 62.4 -19.1 62.5 -18.8 62.4
1991-01-31 00:00:00 -19.4 62.9 -19.6 62.8 -19.4 62.9
jtwc_sh reunion neumann
1991-01-31 06:00:00 -20.1 63.3 -20.1 63.2 -20.1 63.3
1991-01-31 12:00:00 -20.9 63.5 -20.8 63.6 -20.9 63.5
1991-01-31 18:00:00 -21.7 63.5 -21.7 64.0 -21.7 63.5
1991-02-01 00:00:00 -22.4 63.5 -22.5 64.1 -22.4 63.5
1991-02-01 06:00:00 -23.1 63.5 -23.5 63.8 -23.1 63.5
1991-02-01 12:00:00 -23.8 63.0 -24.2 63.2 -23.8 63.0
1991-02-01 18:00:00 -24.4 62.5 -24.7 62.7 -24.4 62.5
1991-02-02 00:00:00 -25.1 62.1 -25.2 62.2 -25.1 62.1
1991-02-02 06:00:00 -25.9 61.6 -26.0 61.9 -25.9 61.6
1991-02-02 12:00:00 -26.9 61.3 -27.0 61.7 -26.9 61.3
1991-02-02 18:00:00 -28.1 61.1 -28.2 61.5 -28.1 61.1
1991-02-03 00:00:00 -29.4 60.8 -29.7 60.8 -29.4 60.8
1991-02-03 06:00:00 -30.8 60.6 -30.9 60.5 -30.8 60.6
1991-02-03 12:00:00 -32.1 60.7 -32.0 60.5 -32.1 60.7
1991-02-03 18:00:00 -33.1 61.6 -32.8 61.2 -33.1 61.6
1991-02-04 00:00:00 -34.1 62.6 -33.5 62.2 -34.1 62.6
1991-02-04 06:00:00 -34.9 63.8 -34.2 63.5 -34.9 63.8
1991-02-04 12:00:00 -35.7 65.1 -35.2 65.1 -35.7 65.1
1991-02-04 18:00:00 -36.1 66.7 -36.1 66.7

top of pageTrack Data:Intensity

jtwc_sh reunion neumann
Date Wind Pres Wind Pres Wind Pres
1991-01-13 00:00:00 20. 20.
1991-01-13 06:00:00 20. 20.
1991-01-13 12:00:00 20. 20.
1991-01-13 18:00:00 25. 25.
1991-01-14 00:00:00 25. 25.
1991-01-14 06:00:00 25. 25.
1991-01-14 12:00:00 25. 25.
1991-01-14 18:00:00 25. 25.
1991-01-15 00:00:00 20. 20.
1991-01-15 06:00:00 20. 20.
1991-01-15 12:00:00 15. 15.
1991-01-15 18:00:00 15. 15.
1991-01-16 00:00:00 15. 15.
1991-01-16 06:00:00 15. 15.
1991-01-16 12:00:00 15. 15.
1991-01-16 18:00:00 15. 15.
1991-01-17 00:00:00 15. 15.
1991-01-17 06:00:00 20. 20.
1991-01-17 12:00:00 20. 20.
1991-01-17 18:00:00 20. 20.
1991-01-18 00:00:00 20. 20.
1991-01-18 06:00:00 20. 20.
1991-01-18 12:00:00 20. 20. 1006. 20.
1991-01-18 18:00:00 25. 20. 1004. 25.
1991-01-19 00:00:00 25. 20. 1002. 25.
jtwc_sh reunion neumann
1991-01-19 06:00:00 25. 20. 1002. 25.
1991-01-19 12:00:00 30. 24. 1000. 30.
1991-01-19 18:00:00 30. 24. 1000. 30.
1991-01-20 00:00:00 30. 24. 1000. 30.
1991-01-20 06:00:00 30. 24. 1000. 30.
1991-01-20 12:00:00 30. 24. 1000. 30.
1991-01-20 18:00:00 30. 24. 1000. 30.
1991-01-21 00:00:00 30. 24. 1000. 30.
1991-01-21 06:00:00 30. 24. 1000. 30.
1991-01-21 12:00:00 30. 24. 1000. 30.
1991-01-21 18:00:00 30. 24. 1000. 30.
1991-01-22 00:00:00 30. 24. 1000. 30.
1991-01-22 06:00:00 30. 24. 1000. 30.
1991-01-22 12:00:00 30. 28. 997. 30.
1991-01-22 18:00:00 30. 28. 997. 30.
1991-01-23 00:00:00 35. 28. 997. 35.
1991-01-23 06:00:00 35. 28. 997. 35.
1991-01-23 12:00:00 35. 28. 997. 35.
1991-01-23 18:00:00 40. 28. 997. 40.
1991-01-24 00:00:00 40. 28. 997. 40.
1991-01-24 06:00:00 45. 28. 997. 45.
1991-01-24 12:00:00 45. 28. 997. 45.
1991-01-24 18:00:00 45. 28. 997. 45.
1991-01-25 00:00:00 45. 32. 994. 45.
jtwc_sh reunion neumann
1991-01-25 06:00:00 40. 32. 994. 40.
1991-01-25 12:00:00 40. 32. 994. 40.
1991-01-25 18:00:00 40. 36. 991. 40.
1991-01-26 00:00:00 40. 36. 991. 40.
1991-01-26 06:00:00 40. 36. 991. 40.
1991-01-26 12:00:00 40. 36. 991. 40.
1991-01-26 18:00:00 40. 41. 987. 40.
1991-01-27 00:00:00 45. 44. 984. 45.
1991-01-27 06:00:00 50. 44. 984. 50.
1991-01-27 12:00:00 55. 48. 980. 55.
1991-01-27 18:00:00 60. 52. 976. 60.
1991-01-28 00:00:00 65. 52. 976. 65.
1991-01-28 06:00:00 70. 57. 971. 70.
1991-01-28 12:00:00 75. 62. 966. 75.
1991-01-28 18:00:00 85. 65. 962. 85.
1991-01-29 00:00:00 95. 72. 954. 95.
1991-01-29 06:00:00 105. 72. 954. 105.
1991-01-29 12:00:00 120. 77. 948. 120.
1991-01-29 18:00:00 130. 85. 936. 130.
1991-01-30 00:00:00 130. 85. 936. 130.
1991-01-30 06:00:00 125. 82. 941. 125.
1991-01-30 12:00:00 120. 82. 941. 120.
1991-01-30 18:00:00 110. 82. 941. 110.
1991-01-31 00:00:00 110. 77. 948. 110.
jtwc_sh reunion neumann
1991-01-31 06:00:00 100. 72. 954. 100.
1991-01-31 12:00:00 85. 62. 966. 85.
1991-01-31 18:00:00 75. 52. 976. 75.
1991-02-01 00:00:00 65. 52. 976. 65.
1991-02-01 06:00:00 60. 52. 976. 60.
1991-02-01 12:00:00 55. 48. 980. 55.
1991-02-01 18:00:00 50. 48. 980. 50.
1991-02-02 00:00:00 50. 52. 976. 50.
1991-02-02 06:00:00 45. 52. 976. 45.
1991-02-02 12:00:00 45. 52. 976. 45.
1991-02-02 18:00:00 45. 49. 979. 45.
1991-02-03 00:00:00 45. 44. 984. 45.
1991-02-03 06:00:00 40. 44. 984. 40.
1991-02-03 12:00:00 40. 44. 984. 40.
1991-02-03 18:00:00 35. 39. 988. 35.
1991-02-04 00:00:00 35. 36. 991. 35.
1991-02-04 06:00:00 30. 36. 991. 30.
1991-02-04 12:00:00 30. 995. 30.
1991-02-04 18:00:00 25. 25.

top of page Links to source data

Source Source file Format
jtwc_sh bsh081991.txt ATCF
reunion WMO-Best-Tracks.txt:Line=15121:bella WMO (old format)
neumann tracks.sh:Storm=906:BELLA:BSH081991:JTWC HURDAT